Upstream stations:
Downstream station:
SHEF ID: FLRK1 COTTONWOOD R NR FLORENCE, KS
STATION TYPE:
Regulating: Stage = 21.00, Flow = 9471
PRECIP STAGE STAGE(2) RIV-FLOW BAT-LOAD
in ft ft cfs volt
Ccp-Rev Ccp-Rev Ccp-Rev Ccp-Rev Ccp-Rev
(US/Central)
11/17 00:00 0.00 3.08 2.90 77 12.89
11/17 01:00 0.00 3.08 2.91 77 12.89
11/17 02:00 0.00 3.08 2.91 77 12.89
11/17 03:00 0.00 3.06 2.90 72 12.83
11/17 04:00 0.00 3.06 2.91 72 12.83
11/17 05:00 0.00 3.06 2.90 72 12.77
11/17 06:00 0.00 3.05 2.91 69 12.77
11/17 07:00 0.00 3.06 2.90 72 12.71
11/17 08:00 0.00 3.06 2.91 72 12.71
11/17 09:00 0.00 3.05 2.91 69 13.00
11/17 10:00 0.00 3.04 2.91 67 13.48
11/17 11:00 0.00 3.03 2.90 64 13.53
11/17 12:00 0.00 3.05 2.90 69 13.65
11/17 13:00 0.00 3.03 2.90 64 14.06
11/17 14:00 0.00 3.04 2.91 67 13.94
11/17 15:00 0.00 3.04 2.90 67 ----
11/17 16:00 0.00 3.04 2.91 67 13.94
11/17 17:00 0.00 3.06 2.90 72 13.42
11/17 18:00 0.00 3.07 2.91 75 13.07
11/17 19:00 0.00 3.07 2.90 75 13.00
11/17 20:00 0.00 3.07 2.91 75 12.95
11/17 21:00 0.00 3.07 2.91 75 12.89
11/17 22:00 0.00 3.08 2.90 77 12.89
11/17 23:00 0.00 3.08 2.91 77 12.83